sensor_id;sensor_type;location;lat;lon;timestamp;pressure;altitude;pressure_sealevel;temperature;humidity
76132;BME280;64877;50.994;13.650;2023-12-14T00:01:50;98439.25;;;7.97;100.00
76132;BME280;64877;50.994;13.650;2023-12-14T00:04:15;98436.56;;;7.97;100.00
76132;BME280;64877;50.994;13.650;2023-12-14T00:06:41;98439.84;;;7.80;100.00
76132;BME280;64877;50.994;13.650;2023-12-14T00:09:06;98446.81;;;7.83;100.00
76132;BME280;64877;50.994;13.650;2023-12-14T00:11:37;98448.19;;;7.77;100.00
76132;BME280;64877;50.994;13.650;2023-12-14T00:14:04;98446.34;;;7.77;100.00
76132;BME280;64877;50.994;13.650;2023-12-14T00:16:29;98448.66;;;7.82;100.00
76132;BME280;64877;50.994;13.650;2023-12-14T00:18:54;98444.72;;;7.86;100.00
76132;BME280;64877;50.994;13.650;2023-12-14T00:21:20;98443.28;;;7.82;100.00
76132;BME280;64877;50.994;13.650;2023-12-14T00:23:45;98456.56;;;7.84;100.00
76132;BME280;64877;50.994;13.650;2023-12-14T00:26:11;98454.97;;;7.60;100.00
76132;BME280;64877;50.994;13.650;2023-12-14T00:28:36;98455.34;;;7.67;100.00
76132;BME280;64877;50.994;13.650;2023-12-14T00:31:01;98455.72;;;7.41;100.00
76132;BME280;64877;50.994;13.650;2023-12-14T00:33:27;98461.75;;;7.22;100.00
76132;BME280;64877;50.994;13.650;2023-12-14T00:35:52;98460.16;;;7.31;100.00
76132;BME280;64877;50.994;13.650;2023-12-14T00:38:18;98466.75;;;7.27;100.00
76132;BME280;64877;50.994;13.650;2023-12-14T00:40:43;98469.75;;;7.34;100.00
76132;BME280;64877;50.994;13.650;2023-12-14T00:43:09;98466.06;;;7.46;100.00
76132;BME280;64877;50.994;13.650;2023-12-14T00:45:34;98469.84;;;7.43;100.00
76132;BME280;64877;50.994;13.650;2023-12-14T00:47:59;98478.19;;;7.61;100.00
76132;BME280;64877;50.994;13.650;2023-12-14T00:50:25;98466.31;;;7.64;100.00
76132;BME280;64877;50.994;13.650;2023-12-14T00:52:50;98477.28;;;7.51;100.00
76132;BME280;64877;50.994;13.650;2023-12-14T00:55:15;98480.44;;;7.45;100.00
76132;BME280;64877;50.994;13.650;2023-12-14T00:57:41;98482.81;;;7.38;100.00
76132;BME280;64877;50.994;13.650;2023-12-14T01:00:07;98491.34;;;7.43;100.00
76132;BME280;64877;50.994;13.650;2023-12-14T01:02:34;98494.25;;;7.51;100.00
76132;BME280;64877;50.994;13.650;2023-12-14T01:05:00;98493.44;;;7.61;100.00
76132;BME280;64877;50.994;13.650;2023-12-14T01:07:26;98505.19;;;7.60;100.00
76132;BME280;64877;50.994;13.650;2023-12-14T01:09:51;98501.91;;;7.56;100.00
76132;BME280;64877;50.994;13.650;2023-12-14T01:12:16;98502.09;;;7.64;100.00
76132;BME280;64877;50.994;13.650;2023-12-14T01:14:42;98508.94;;;7.68;100.00
76132;BME280;64877;50.994;13.650;2023-12-14T01:17:07;98509.91;;;7.67;100.00
76132;BME280;64877;50.994;13.650;2023-12-14T01:19:33;98519.53;;;7.70;100.00
76132;BME280;64877;50.994;13.650;2023-12-14T01:21:58;98520.19;;;7.62;100.00
76132;BME280;64877;50.994;13.650;2023-12-14T01:24:23;98526.75;;;7.69;100.00
76132;BME280;64877;50.994;13.650;2023-12-14T01:26:49;98521.06;;;7.63;100.00
76132;BME280;64877;50.994;13.650;2023-12-14T01:29:14;98531.06;;;7.61;100.00
76132;BME280;64877;50.994;13.650;2023-12-14T01:31:39;98528.88;;;7.66;100.00
76132;BME280;64877;50.994;13.650;2023-12-14T01:34:05;98531.00;;;7.51;100.00
76132;BME280;64877;50.994;13.650;2023-12-14T01:36:30;98532.09;;;7.48;100.00
76132;BME280;64877;50.994;13.650;2023-12-14T01:38:56;98541.34;;;7.56;100.00
76132;BME280;64877;50.994;13.650;2023-12-14T01:41:21;98547.59;;;7.45;100.00
76132;BME280;64877;50.994;13.650;2023-12-14T01:43:46;98553.59;;;7.48;100.00
76132;BME280;64877;50.994;13.650;2023-12-14T01:46:12;98555.19;;;7.51;100.00
76132;BME280;64877;50.994;13.650;2023-12-14T01:48:39;98550.59;;;7.63;100.00
76132;BME280;64877;50.994;13.650;2023-12-14T01:51:04;98556.75;;;7.54;100.00
76132;BME280;64877;50.994;13.650;2023-12-14T01:53:29;98556.59;;;7.66;100.00
76132;BME280;64877;50.994;13.650;2023-12-14T01:55:55;98562.22;;;7.84;100.00
76132;BME280;64877;50.994;13.650;2023-12-14T01:58:21;98566.13;;;7.59;100.00
76132;BME280;64877;50.994;13.650;2023-12-14T02:01:26;98568.75;;;7.70;100.00
76132;BME280;64877;50.994;13.650;2023-12-14T02:03:50;98566.41;;;7.56;100.00
76132;BME280;64877;50.994;13.650;2023-12-14T02:06:15;98564.09;;;7.51;100.00
76132;BME280;64877;50.994;13.650;2023-12-14T02:08:41;98567.06;;;7.69;100.00
76132;BME280;64877;50.994;13.650;2023-12-14T02:11:06;98571.44;;;7.70;100.00
76132;BME280;64877;50.994;13.650;2023-12-14T02:13:32;98583.25;;;7.47;100.00
76132;BME280;64877;50.994;13.650;2023-12-14T02:15:58;98570.03;;;7.55;100.00
76132;BME280;64877;50.994;13.650;2023-12-14T02:18:23;98566.97;;;7.60;100.00
76132;BME280;64877;50.994;13.650;2023-12-14T02:20:49;98579.66;;;7.69;100.00
76132;BME280;64877;50.994;13.650;2023-12-14T02:23:14;98576.72;;;7.61;100.00
76132;BME280;64877;50.994;13.650;2023-12-14T02:25:39;98584.22;;;7.57;100.00
76132;BME280;64877;50.994;13.650;2023-12-14T02:28:05;98579.19;;;7.64;100.00
76132;BME280;64877;50.994;13.650;2023-12-14T02:30:30;98581.63;;;7.56;100.00
76132;BME280;64877;50.994;13.650;2023-12-14T02:32:56;98591.03;;;7.61;100.00
76132;BME280;64877;50.994;13.650;2023-12-14T02:35:21;98589.41;;;7.70;100.00
76132;BME280;64877;50.994;13.650;2023-12-14T02:37:48;98591.38;;;7.68;100.00
76132;BME280;64877;50.994;13.650;2023-12-14T02:40:13;98584.00;;;7.81;100.00
76132;BME280;64877;50.994;13.650;2023-12-14T02:42:39;98589.50;;;7.80;100.00
76132;BME280;64877;50.994;13.650;2023-12-14T02:45:06;98599.41;;;7.79;100.00
76132;BME280;64877;50.994;13.650;2023-12-14T02:47:32;98591.47;;;7.77;100.00
76132;BME280;64877;50.994;13.650;2023-12-14T02:49:57;98593.34;;;7.66;100.00
76132;BME280;64877;50.994;13.650;2023-12-14T02:52:23;98595.34;;;7.53;100.00
76132;BME280;64877;50.994;13.650;2023-12-14T02:54:48;98598.75;;;7.55;100.00
76132;BME280;64877;50.994;13.650;2023-12-14T02:57:13;98600.56;;;7.54;100.00
76132;BME280;64877;50.994;13.650;2023-12-14T02:59:39;98601.28;;;7.67;100.00
76132;BME280;64877;50.994;13.650;2023-12-14T03:02:05;98597.75;;;7.56;100.00
76132;BME280;64877;50.994;13.650;2023-12-14T03:04:31;98612.44;;;7.51;100.00
76132;BME280;64877;50.994;13.650;2023-12-14T03:06:56;98612.69;;;7.48;100.00
76132;BME280;64877;50.994;13.650;2023-12-14T03:09:22;98608.81;;;7.41;100.00
76132;BME280;64877;50.994;13.650;2023-12-14T03:11:48;98621.72;;;7.47;100.00
76132;BME280;64877;50.994;13.650;2023-12-14T03:14:13;98622.53;;;7.59;100.00
76132;BME280;64877;50.994;13.650;2023-12-14T03:16:38;98615.44;;;7.69;100.00
76132;BME280;64877;50.994;13.650;2023-12-14T03:19:04;98626.44;;;7.66;100.00
76132;BME280;64877;50.994;13.650;2023-12-14T03:21:30;98623.97;;;7.74;100.00
76132;BME280;64877;50.994;13.650;2023-12-14T03:23:56;98624.81;;;7.86;100.00
76132;BME280;64877;50.994;13.650;2023-12-14T03:26:21;98625.28;;;7.91;100.00
76132;BME280;64877;50.994;13.650;2023-12-14T03:28:47;98628.06;;;7.90;100.00
76132;BME280;64877;50.994;13.650;2023-12-14T03:31:12;98633.94;;;7.51;100.00
76132;BME280;64877;50.994;13.650;2023-12-14T03:33:38;98645.91;;;7.47;100.00
76132;BME280;64877;50.994;13.650;2023-12-14T03:36:04;98652.63;;;7.42;100.00
76132;BME280;64877;50.994;13.650;2023-12-14T03:38:29;98647.34;;;7.40;100.00
76132;BME280;64877;50.994;13.650;2023-12-14T03:40:55;98648.84;;;7.33;100.00
76132;BME280;64877;50.994;13.650;2023-12-14T03:43:20;98654.47;;;7.41;100.00
76132;BME280;64877;50.994;13.650;2023-12-14T03:45:46;98658.84;;;7.42;100.00
76132;BME280;64877;50.994;13.650;2023-12-14T03:48:11;98665.31;;;7.29;100.00
76132;BME280;64877;50.994;13.650;2023-12-14T03:50:37;98672.75;;;7.47;100.00
76132;BME280;64877;50.994;13.650;2023-12-14T03:53:02;98672.75;;;7.59;100.00
76132;BME280;64877;50.994;13.650;2023-12-14T03:55:27;98679.81;;;7.60;100.00
76132;BME280;64877;50.994;13.650;2023-12-14T03:57:53;98682.03;;;7.55;100.00
76132;BME280;64877;50.994;13.650;2023-12-14T04:00:18;98679.34;;;7.55;100.00
76132;BME280;64877;50.994;13.650;2023-12-14T04:02:44;98684.47;;;7.58;100.00
76132;BME280;64877;50.994;13.650;2023-12-14T04:05:09;98688.63;;;7.62;100.00
76132;BME280;64877;50.994;13.650;2023-12-14T04:07:38;98696.81;;;7.49;100.00
76132;BME280;64877;50.994;13.650;2023-12-14T04:10:11;98703.00;;;7.61;100.00
76132;BME280;64877;50.994;13.650;2023-12-14T04:12:37;98698.88;;;7.68;100.00
76132;BME280;64877;50.994;13.650;2023-12-14T04:15:07;98702.06;;;7.62;100.00
76132;BME280;64877;50.994;13.650;2023-12-14T04:17:33;98696.66;;;7.50;100.00
76132;BME280;64877;50.994;13.650;2023-12-14T04:19:59;98696.66;;;7.50;100.00
76132;BME280;64877;50.994;13.650;2023-12-14T04:22:25;98698.63;;;7.48;100.00
76132;BME280;64877;50.994;13.650;2023-12-14T04:24:51;98704.13;;;7.58;100.00
76132;BME280;64877;50.994;13.650;2023-12-14T04:27:16;98707.66;;;7.59;100.00
76132;BME280;64877;50.994;13.650;2023-12-14T04:29:42;98707.19;;;7.54;100.00
76132;BME280;64877;50.994;13.650;2023-12-14T04:32:08;98719.41;;;7.58;100.00
76132;BME280;64877;50.994;13.650;2023-12-14T04:34:35;98716.47;;;7.49;100.00
76132;BME280;64877;50.994;13.650;2023-12-14T04:37:04;98713.28;;;7.44;100.00
76132;BME280;64877;50.994;13.650;2023-12-14T04:39:31;98715.84;;;7.57;100.00
76132;BME280;64877;50.994;13.650;2023-12-14T04:41:59;98729.28;;;7.57;100.00
76132;BME280;64877;50.994;13.650;2023-12-14T04:44:25;98732.34;;;7.64;100.00
76132;BME280;64877;50.994;13.650;2023-12-14T04:46:50;98736.97;;;7.62;100.00
76132;BME280;64877;50.994;13.650;2023-12-14T04:49:19;98742.09;;;7.65;100.00
76132;BME280;64877;50.994;13.650;2023-12-14T04:51:45;98746.97;;;7.82;100.00
76132;BME280;64877;50.994;13.650;2023-12-14T04:54:11;98749.16;;;7.88;100.00
76132;BME280;64877;50.994;13.650;2023-12-14T04:56:36;98755.75;;;7.84;100.00
76132;BME280;64877;50.994;13.650;2023-12-14T04:59:02;98762.34;;;7.80;100.00
76132;BME280;64877;50.994;13.650;2023-12-14T05:01:27;98759.19;;;7.86;100.00
76132;BME280;64877;50.994;13.650;2023-12-14T05:03:53;98762.84;;;7.96;100.00
76132;BME280;64877;50.994;13.650;2023-12-14T05:06:19;98772.38;;;7.89;100.00
76132;BME280;64877;50.994;13.650;2023-12-14T05:08:47;98781.41;;;7.88;100.00
76132;BME280;64877;50.994;13.650;2023-12-14T05:11:13;98784.47;;;7.84;100.00
76132;BME280;64877;50.994;13.650;2023-12-14T05:13:39;98785.59;;;7.81;100.00
76132;BME280;64877;50.994;13.650;2023-12-14T05:16:05;98789.13;;;7.82;100.00
76132;BME280;64877;50.994;13.650;2023-12-14T05:18:36;98794.03;;;7.76;100.00
76132;BME280;64877;50.994;13.650;2023-12-14T05:21:02;98798.78;;;7.73;100.00
76132;BME280;64877;50.994;13.650;2023-12-14T05:23:32;98808.41;;;7.75;100.00
76132;BME280;64877;50.994;13.650;2023-12-14T05:26:01;98808.31;;;7.77;100.00
76132;BME280;64877;50.994;13.650;2023-12-14T05:28:29;98804.16;;;7.73;100.00
76132;BME280;64877;50.994;13.650;2023-12-14T05:30:54;98807.69;;;7.62;100.00
76132;BME280;64877;50.994;13.650;2023-12-14T05:33:20;98815.41;;;7.67;100.00
76132;BME280;64877;50.994;13.650;2023-12-14T05:35:45;98812.72;;;7.67;100.00
76132;BME280;64877;50.994;13.650;2023-12-14T05:38:10;98812.22;;;7.62;100.00
76132;BME280;64877;50.994;13.650;2023-12-14T05:40:36;98822.13;;;7.61;100.00
76132;BME280;64877;50.994;13.650;2023-12-14T05:43:02;98832.72;;;7.63;100.00
76132;BME280;64877;50.994;13.650;2023-12-14T05:45:27;98843.84;;;7.58;100.00
76132;BME280;64877;50.994;13.650;2023-12-14T05:47:53;98848.84;;;7.51;100.00
76132;BME280;64877;50.994;13.650;2023-12-14T05:50:19;98857.75;;;7.52;100.00
76132;BME280;64877;50.994;13.650;2023-12-14T05:52:44;98852.47;;;7.50;100.00
76132;BME280;64877;50.994;13.650;2023-12-14T05:55:11;98858.97;;;7.48;100.00
76132;BME280;64877;50.994;13.650;2023-12-14T05:57:36;98868.47;;;7.41;100.00
76132;BME280;64877;50.994;13.650;2023-12-14T06:00:03;98868.88;;;7.47;100.00
76132;BME280;64877;50.994;13.650;2023-12-14T06:02:30;98873.25;;;7.48;100.00
76132;BME280;64877;50.994;13.650;2023-12-14T06:04:57;98885.84;;;7.48;100.00
76132;BME280;64877;50.994;13.650;2023-12-14T06:07:23;98887.25;;;7.41;100.00
76132;BME280;64877;50.994;13.650;2023-12-14T06:09:49;98893.13;;;7.35;100.00
76132;BME280;64877;50.994;13.650;2023-12-14T06:12:14;98893.03;;;7.36;100.00
76132;BME280;64877;50.994;13.650;2023-12-14T06:14:39;98883.34;;;7.34;100.00
76132;BME280;64877;50.994;13.650;2023-12-14T06:17:05;98891.75;;;7.29;100.00
76132;BME280;64877;50.994;13.650;2023-12-14T06:19:30;98894.94;;;7.34;100.00
76132;BME280;64877;50.994;13.650;2023-12-14T06:21:56;98896.91;;;7.32;100.00
76132;BME280;64877;50.994;13.650;2023-12-14T06:24:21;98902.03;;;7.35;100.00
76132;BME280;64877;50.994;13.650;2023-12-14T06:26:48;98913.03;;;7.32;100.00
76132;BME280;64877;50.994;13.650;2023-12-14T06:29:13;98918.13;;;7.35;100.00
76132;BME280;64877;50.994;13.650;2023-12-14T06:31:39;98921.69;;;7.36;100.00
76132;BME280;64877;50.994;13.650;2023-12-14T06:34:05;98938.78;;;7.35;100.00
76132;BME280;64877;50.994;13.650;2023-12-14T06:36:31;98926.69;;;7.40;100.00
76132;BME280;64877;50.994;13.650;2023-12-14T06:39:00;98931.66;;;7.58;100.00
76132;BME280;64877;50.994;13.650;2023-12-14T06:41:27;98935.63;;;7.76;100.00
76132;BME280;64877;50.994;13.650;2023-12-14T06:43:53;98944.28;;;7.80;100.00
76132;BME280;64877;50.994;13.650;2023-12-14T06:46:18;98944.41;;;7.89;100.00
76132;BME280;64877;50.994;13.650;2023-12-14T06:48:44;98953.09;;;7.93;100.00
76132;BME280;64877;50.994;13.650;2023-12-14T06:51:10;98952.31;;;7.68;100.00
76132;BME280;64877;50.994;13.650;2023-12-14T06:53:35;98957.19;;;7.63;100.00
76132;BME280;64877;50.994;13.650;2023-12-14T06:56:03;98954.84;;;7.59;100.00
76132;BME280;64877;50.994;13.650;2023-12-14T06:58:29;98962.63;;;7.50;100.00
76132;BME280;64877;50.994;13.650;2023-12-14T07:00:54;98970.81;;;7.49;100.00
76132;BME280;64877;50.994;13.650;2023-12-14T07:03:19;98977.50;;;7.43;100.00
76132;BME280;64877;50.994;13.650;2023-12-14T07:05:45;98981.53;;;7.38;100.00
76132;BME280;64877;50.994;13.650;2023-12-14T07:08:10;98991.25;;;7.28;100.00
76132;BME280;64877;50.994;13.650;2023-12-14T07:10:36;98986.34;;;7.21;100.00
76132;BME280;64877;50.994;13.650;2023-12-14T07:13:01;99001.34;;;7.24;100.00
76132;BME280;64877;50.994;13.650;2023-12-14T07:15:26;99003.31;;;7.22;100.00
76132;BME280;64877;50.994;13.650;2023-12-14T07:17:52;99006.84;;;7.22;100.00
76132;BME280;64877;50.994;13.650;2023-12-14T07:20:17;99021.34;;;7.20;100.00
76132;BME280;64877;50.994;13.650;2023-12-14T07:22:43;99026.44;;;7.12;100.00
76132;BME280;64877;50.994;13.650;2023-12-14T07:25:08;99039.03;;;6.98;100.00
76132;BME280;64877;50.994;13.650;2023-12-14T07:27:34;99030.91;;;6.87;100.00
76132;BME280;64877;50.994;13.650;2023-12-14T07:29:59;99048.22;;;6.83;100.00
76132;BME280;64877;50.994;13.650;2023-12-14T07:32:25;99052.06;;;6.79;100.00
76132;BME280;64877;50.994;13.650;2023-12-14T07:34:50;99062.59;;;6.82;100.00
76132;BME280;64877;50.994;13.650;2023-12-14T07:37:15;99061.94;;;6.79;100.00
76132;BME280;64877;50.994;13.650;2023-12-14T07:39:41;99059.47;;;6.88;100.00
76132;BME280;64877;50.994;13.650;2023-12-14T07:42:06;99073.75;;;6.89;100.00
76132;BME280;64877;50.994;13.650;2023-12-14T07:44:32;99072.25;;;6.85;100.00
76132;BME280;64877;50.994;13.650;2023-12-14T07:47:01;99078.06;;;6.79;100.00
76132;BME280;64877;50.994;13.650;2023-12-14T07:49:27;99072.03;;;6.75;100.00
76132;BME280;64877;50.994;13.650;2023-12-14T07:51:53;99088.66;;;6.80;100.00
76132;BME280;64877;50.994;13.650;2023-12-14T07:54:18;99090.16;;;6.84;100.00
76132;BME280;64877;50.994;13.650;2023-12-14T07:56:44;99090.16;;;6.84;100.00
76132;BME280;64877;50.994;13.650;2023-12-14T07:59:10;99096.44;;;6.72;100.00
76132;BME280;64877;50.994;13.650;2023-12-14T08:01:36;99097.91;;;6.76;100.00
76132;BME280;64877;50.994;13.650;2023-12-14T08:04:02;99105.22;;;6.74;100.00
76132;BME280;64877;50.994;13.650;2023-12-14T08:06:28;99111.22;;;6.78;100.00
76132;BME280;64877;50.994;13.650;2023-12-14T08:08:54;99112.94;;;6.79;100.00
76132;BME280;64877;50.994;13.650;2023-12-14T08:11:21;99118.97;;;6.82;100.00
76132;BME280;64877;50.994;13.650;2023-12-14T08:13:46;99122.06;;;6.76;100.00
76132;BME280;64877;50.994;13.650;2023-12-14T08:16:12;99133.31;;;6.81;100.00
76132;BME280;64877;50.994;13.650;2023-12-14T08:18:38;99133.31;;;6.81;100.00
76132;BME280;64877;50.994;13.650;2023-12-14T08:21:03;99134.53;;;6.77;100.00
76132;BME280;64877;50.994;13.650;2023-12-14T08:23:29;99137.75;;;6.82;100.00
76132;BME280;64877;50.994;13.650;2023-12-14T08:25:56;99148.81;;;6.78;100.00
76132;BME280;64877;50.994;13.650;2023-12-14T08:28:24;99143.09;;;6.82;100.00
76132;BME280;64877;50.994;13.650;2023-12-14T08:30:53;99154.69;;;6.83;100.00
76132;BME280;64877;50.994;13.650;2023-12-14T08:33:18;99147.50;;;6.83;100.00
76132;BME280;64877;50.994;13.650;2023-12-14T08:35:44;99163.94;;;6.79;100.00
76132;BME280;64877;50.994;13.650;2023-12-14T08:38:09;99167.47;;;6.79;100.00
76132;BME280;64877;50.994;13.650;2023-12-14T08:40:36;99165.31;;;6.84;100.00
76132;BME280;64877;50.994;13.650;2023-12-14T08:43:02;99165.75;;;6.78;100.00
76132;BME280;64877;50.994;13.650;2023-12-14T08:45:28;99173.50;;;6.83;100.00
76132;BME280;64877;50.994;13.650;2023-12-14T08:47:53;99188.81;;;6.81;100.00
76132;BME280;64877;50.994;13.650;2023-12-14T08:50:19;99182.59;;;6.80;100.00
76132;BME280;64877;50.994;13.650;2023-12-14T08:52:44;99193.75;;;6.74;100.00
76132;BME280;64877;50.994;13.650;2023-12-14T08:55:11;99190.34;;;6.72;100.00
76132;BME280;64877;50.994;13.650;2023-12-14T08:57:36;99198.16;;;6.75;100.00
76132;BME280;64877;50.994;13.650;2023-12-14T09:00:02;99199.88;;;6.76;100.00
76132;BME280;64877;50.994;13.650;2023-12-14T09:02:30;99203.22;;;6.80;100.00
76132;BME280;64877;50.994;13.650;2023-12-14T09:04:55;99213.28;;;6.76;100.00
76132;BME280;64877;50.994;13.650;2023-12-14T09:07:20;99216.41;;;6.70;100.00
76132;BME280;64877;50.994;13.650;2023-12-14T09:09:46;99223.28;;;6.74;100.00
76132;BME280;64877;50.994;13.650;2023-12-14T09:12:11;99235.53;;;6.78;100.00
76132;BME280;64877;50.994;13.650;2023-12-14T09:14:37;99232.41;;;6.84;100.00
76132;BME280;64877;50.994;13.650;2023-12-14T09:17:03;99234.97;;;6.73;100.00
76132;BME280;64877;50.994;13.650;2023-12-14T09:19:29;99242.81;;;6.76;100.00
76132;BME280;64877;50.994;13.650;2023-12-14T09:21:55;99236.59;;;6.63;100.00
76132;BME280;64877;50.994;13.650;2023-12-14T09:24:21;99242.38;;;6.69;100.00
76132;BME280;64877;50.994;13.650;2023-12-14T09:26:46;99245.59;;;6.74;100.00
76132;BME280;64877;50.994;13.650;2023-12-14T09:29:11;99259.03;;;6.74;100.00
76132;BME280;64877;50.994;13.650;2023-12-14T09:31:41;99254.09;;;6.68;100.00
76132;BME280;64877;50.994;13.650;2023-12-14T09:34:07;99260.50;;;6.66;100.00
76132;BME280;64877;50.994;13.650;2023-12-14T09:36:32;99265.88;;;6.66;100.00
76132;BME280;64877;50.994;13.650;2023-12-14T09:38:57;99263.19;;;6.66;100.00
76132;BME280;64877;50.994;13.650;2023-12-14T09:41:23;99268.34;;;6.69;100.00
76132;BME280;64877;50.994;13.650;2023-12-14T09:43:48;99274.56;;;6.69;100.00
76132;BME280;64877;50.994;13.650;2023-12-14T09:46:15;99275.25;;;6.73;100.00
76132;BME280;64877;50.994;13.650;2023-12-14T09:48:42;99273.41;;;6.73;100.00
76132;BME280;64877;50.994;13.650;2023-12-14T09:51:08;99278.88;;;6.72;100.00
76132;BME280;64877;50.994;13.650;2023-12-14T09:53:33;99279.59;;;6.61;100.00
76132;BME280;64877;50.994;13.650;2023-12-14T09:55:59;99293.13;;;6.60;100.00
76132;BME280;64877;50.994;13.650;2023-12-14T09:58:24;99295.81;;;6.60;100.00
76132;BME280;64877;50.994;13.650;2023-12-14T10:00:49;99292.25;;;6.59;100.00
76132;BME280;64877;50.994;13.650;2023-12-14T10:03:23;99294.28;;;6.56;100.00
76132;BME280;64877;50.994;13.650;2023-12-14T10:05:51;99298.91;;;6.54;100.00
76132;BME280;64877;50.994;13.650;2023-12-14T10:08:17;99298.59;;;6.58;100.00
76132;BME280;64877;50.994;13.650;2023-12-14T10:10:43;99292.38;;;6.58;100.00
76132;BME280;64877;50.994;13.650;2023-12-14T10:13:09;99296.28;;;6.66;100.00
76132;BME280;64877;50.994;13.650;2023-12-14T10:15:44;99305.91;;;6.69;100.00
76132;BME280;64877;50.994;13.650;2023-12-14T10:18:10;99310.44;;;6.68;100.00
76132;BME280;64877;50.994;13.650;2023-12-14T10:20:36;99306.34;;;6.63;100.00
76132;BME280;64877;50.994;13.650;2023-12-14T10:23:05;99318.16;;;6.73;100.00
76132;BME280;64877;50.994;13.650;2023-12-14T10:25:30;99317.75;;;6.79;100.00
76132;BME280;64877;50.994;13.650;2023-12-14T10:27:57;99326.78;;;6.78;100.00
76132;BME280;64877;50.994;13.650;2023-12-14T10:30:22;99321.81;;;6.72;100.00
76132;BME280;64877;50.994;13.650;2023-12-14T10:32:48;99324.81;;;6.67;100.00
76132;BME280;64877;50.994;13.650;2023-12-14T10:35:14;99326.63;;;6.67;100.00
76132;BME280;64877;50.994;13.650;2023-12-14T10:37:42;99326.69;;;6.53;100.00
76132;BME280;64877;50.994;13.650;2023-12-14T10:40:13;99332.63;;;6.58;100.00
76132;BME280;64877;50.994;13.650;2023-12-14T10:42:42;99331.66;;;6.59;100.00
76132;BME280;64877;50.994;13.650;2023-12-14T10:45:13;99341.09;;;6.64;100.00
76132;BME280;64877;50.994;13.650;2023-12-14T10:47:47;99344.88;;;6.62;100.00
76132;BME280;64877;50.994;13.650;2023-12-14T10:50:14;99346.22;;;6.55;100.00
76132;BME280;64877;50.994;13.650;2023-12-14T10:52:40;99343.53;;;6.55;100.00
76132;BME280;64877;50.994;13.650;2023-12-14T10:55:28;99355.22;;;6.54;100.00
76132;BME280;64877;50.994;13.650;2023-12-14T10:57:57;99357.34;;;6.48;100.00
76132;BME280;64877;50.994;13.650;2023-12-14T11:00:23;99364.41;;;6.37;100.00
76132;BME280;64877;50.994;13.650;2023-12-14T11:02:49;99368.88;;;6.36;100.00
76132;BME280;64877;50.994;13.650;2023-12-14T11:05:16;99368.00;;;6.36;100.00
76132;BME280;64877;50.994;13.650;2023-12-14T11:10:15;99376.34;;;6.31;100.00
76132;BME280;64877;50.994;13.650;2023-12-14T11:13:01;99383.25;;;6.35;100.00
76132;BME280;64877;50.994;13.650;2023-12-14T11:15:33;99383.06;;;6.38;100.00
76132;BME280;64877;50.994;13.650;2023-12-14T11:20:47;99390.59;;;6.46;100.00
76132;BME280;64877;50.994;13.650;2023-12-14T11:23:15;99392.91;;;6.52;100.00
76132;BME280;64877;50.994;13.650;2023-12-14T11:25:42;99400.84;;;6.54;100.00
76132;BME280;64877;50.994;13.650;2023-12-14T11:28:08;99402.16;;;6.61;100.00
76132;BME280;64877;50.994;13.650;2023-12-14T11:30:35;99402.38;;;6.58;100.00
76132;BME280;64877;50.994;13.650;2023-12-14T11:33:00;99405.06;;;6.58;100.00
76132;BME280;64877;50.994;13.650;2023-12-14T11:35:26;99407.72;;;6.58;100.00
76132;BME280;64877;50.994;13.650;2023-12-14T11:37:51;99414.16;;;6.55;100.00
76132;BME280;64877;50.994;13.650;2023-12-14T11:40:17;99410.81;;;6.52;100.00
76132;BME280;64877;50.994;13.650;2023-12-14T11:43:01;99406.50;;;6.49;100.00
76132;BME280;64877;50.994;13.650;2023-12-14T11:45:28;99417.91;;;6.53;100.00
76132;BME280;64877;50.994;13.650;2023-12-14T11:47:53;99412.16;;;6.44;100.00
76132;BME280;64877;50.994;13.650;2023-12-14T11:50:19;99408.25;;;6.36;100.00
76132;BME280;64877;50.994;13.650;2023-12-14T11:52:45;99415.91;;;6.42;100.00
76132;BME280;64877;50.994;13.650;2023-12-14T11:55:11;99404.91;;;6.46;100.00
76132;BME280;64877;50.994;13.650;2023-12-14T11:57:36;99410.25;;;6.46;100.00
76132;BME280;64877;50.994;13.650;2023-12-14T12:00:02;99411.13;;;6.47;100.00
76132;BME280;64877;50.994;13.650;2023-12-14T12:02:30;99416.38;;;6.48;100.00
76132;BME280;64877;50.994;13.650;2023-12-14T12:04:55;99413.13;;;6.43;100.00
76132;BME280;64877;50.994;13.650;2023-12-14T12:07:21;99423.00;;;6.43;100.00
76132;BME280;64877;50.994;13.650;2023-12-14T12:09:46;99424.31;;;6.50;100.00
76132;BME280;64877;50.994;13.650;2023-12-14T12:12:12;99427.09;;;6.48;100.00
76132;BME280;64877;50.994;13.650;2023-12-14T12:14:39;99429.41;;;6.40;100.00
76132;BME280;64877;50.994;13.650;2023-12-14T12:17:06;99429.41;;;6.40;100.00
76132;BME280;64877;50.994;13.650;2023-12-14T12:19:33;99429.69;;;6.36;100.00
76132;BME280;64877;50.994;13.650;2023-12-14T12:21:58;99432.00;;;6.42;100.00
76132;BME280;64877;50.994;13.650;2023-12-14T12:24:24;99428.44;;;6.41;100.00
76132;BME280;64877;50.994;13.650;2023-12-14T12:26:49;99437.75;;;6.36;100.00
76132;BME280;64877;50.994;13.650;2023-12-14T12:29:14;99435.00;;;6.23;100.00
76132;BME280;64877;50.994;13.650;2023-12-14T12:31:40;99436.31;;;6.30;100.00
76132;BME280;64877;50.994;13.650;2023-12-14T12:34:08;99447.16;;;6.29;100.00
76132;BME280;64877;50.994;13.650;2023-12-14T12:36:33;99446.28;;;6.28;100.00
76132;BME280;64877;50.994;13.650;2023-12-14T12:38:59;99453.78;;;6.23;100.00
76132;BME280;64877;50.994;13.650;2023-12-14T12:41:24;99453.94;;;6.20;100.00
76132;BME280;64877;50.994;13.650;2023-12-14T12:43:50;99450.88;;;6.26;100.00
76132;BME280;64877;50.994;13.650;2023-12-14T12:46:16;99450.03;;;6.26;100.00
76132;BME280;64877;50.994;13.650;2023-12-14T12:48:43;99461.25;;;6.18;100.00
76132;BME280;64877;50.994;13.650;2023-12-14T12:51:09;99464.69;;;6.20;100.00